Time;durP1;ratioP1;P1;durP2;ratioP2;P2;SDS_P1;SDS_P2;PMS_P1;PMS_P2;Temp;Humidity;BMP_temperature;BMP_pressure;BME280_temperature;BME280_humidity;BME280_pressure;Samples;Min_cycle;Max_cycle;Signal;HPM_P1;HPM_P2
2022/03/10 00:01:10;;;;;;;30.97;21.10;;;9.40;38.00;;;;;;5025063;28;22312;-44
2022/03/10 00:03:36;;;;;;;33.83;20.30;;;9.20;38.30;;;;;;5023662;28;20436;-44
2022/03/10 00:06:01;;;;;;;36.67;21.27;;;9.10;38.50;;;;;;5017432;28;20202;-45
2022/03/10 00:08:27;;;;;;;29.27;18.43;;;8.50;39.10;;;;;;5014397;28;20280;-45
2022/03/10 00:10:53;;;;;;;35.77;20.20;;;8.10;40.80;;;;;;5016280;28;20469;-44
2022/03/10 00:13:18;;;;;;;28.07;19.50;;;8.10;40.80;;;;;;5025175;28;20201;-44
2022/03/10 00:15:44;;;;;;;32.03;19.30;;;8.00;40.70;;;;;;5021910;28;20192;-46
2022/03/10 00:18:09;;;;;;;28.83;18.37;;;7.90;41.10;;;;;;5031319;28;20221;-46
2022/03/10 00:20:35;;;;;;;26.93;16.43;;;8.00;41.30;;;;;;5025073;28;20244;-43
2022/03/10 00:23:01;;;;;;;30.33;18.43;;;8.00;41.00;;;;;;5024546;28;20280;-44
2022/03/10 00:25:26;;;;;;;30.30;19.90;;;8.10;40.90;;;;;;5027774;28;20197;-44
2022/03/10 00:27:52;;;;;;;30.63;20.93;;;8.30;40.40;;;;;;5019711;28;20276;-43
2022/03/10 00:30:18;;;;;;;34.93;20.47;;;8.10;40.60;;;;;;5022420;28;20189;-43
2022/03/10 00:32:49;;;;;;;32.73;19.93;;;7.90;40.90;;;;;;5018971;28;20193;-43
2022/03/10 00:35:19;;;;;;;26.97;17.27;;;7.70;41.40;;;;;;5024456;28;20527;-44
2022/03/10 00:37:46;;;;;;;23.73;16.77;;;7.80;41.30;;;;;;5021297;28;20440;-44
2022/03/10 00:40:12;;;;;;;26.90;18.27;;;7.70;41.40;;;;;;5022125;28;20483;-46
2022/03/10 00:42:39;;;;;;;26.43;17.33;;;7.50;42.00;;;;;;5024695;28;20872;-45
2022/03/10 00:45:06;;;;;;;25.67;16.13;;;7.30;42.20;;;;;;5022944;28;20853;-45
2022/03/10 00:47:32;;;;;;;31.23;17.70;;;7.20;42.70;;;;;;5024914;28;20855;-47
2022/03/10 00:49:58;;;;;;;27.93;18.23;;;7.20;42.70;;;;;;5024225;28;20958;-44
2022/03/10 00:52:24;;;;;;;23.93;16.10;;;7.40;42.30;;;;;;5024474;28;20441;-48
2022/03/10 00:54:49;;;;;;;35.50;18.97;;;7.60;41.80;;;;;;5016361;28;20711;-46
2022/03/10 00:57:15;;;;;;;28.67;18.10;;;7.80;41.40;;;;;;5024312;28;20201;-48
2022/03/10 00:59:41;;;;;;;25.47;17.27;;;7.60;41.30;;;;;;5028496;28;20247;-48
2022/03/10 01:02:06;;;;;;;28.43;17.10;;;7.70;41.40;;;;;;5028318;28;20201;-46
2022/03/10 01:04:32;;;;;;;22.60;15.63;;;7.70;41.30;;;;;;5018804;28;20216;-44
2022/03/10 01:06:58;;;;;;;24.70;15.27;;;7.80;41.20;;;;;;5023969;28;20593;-47
2022/03/10 01:09:23;;;;;;;22.33;14.53;;;7.80;41.00;;;;;;5024077;28;20259;-48
2022/03/10 01:11:49;;;;;;;23.20;16.07;;;7.60;41.10;;;;;;5018766;28;20233;-46
2022/03/10 01:14:15;;;;;;;21.00;14.57;;;7.50;41.30;;;;;;5014190;28;20197;-44
2022/03/10 01:16:40;;;;;;;21.63;13.93;;;7.50;41.50;;;;;;5022963;28;20441;-44
2022/03/10 01:19:08;;;;;;;21.97;14.53;;;7.30;41.60;;;;;;5015320;28;20236;-46
2022/03/10 01:21:34;;;;;;;27.10;16.50;;;7.30;41.90;;;;;;5016926;28;20680;-45
2022/03/10 01:24:00;;;;;;;22.87;15.53;;;7.10;42.80;;;;;;5024569;28;20464;-45
2022/03/10 01:26:25;;;;;;;24.53;16.10;;;6.70;42.90;;;;;;5022529;28;20510;-46
2022/03/10 01:28:51;;;;;;;23.07;14.60;;;6.60;43.50;;;;;;5013016;28;20193;-43
2022/03/10 01:31:16;;;;;;;24.03;15.17;;;6.60;43.90;;;;;;5025599;28;20297;-45
2022/03/10 01:33:42;;;;;;;24.17;15.27;;;6.80;43.60;;;;;;5019404;28;20189;-44
2022/03/10 01:36:08;;;;;;;24.20;15.67;;;6.60;43.50;;;;;;5019502;28;20194;-47
2022/03/10 01:38:39;;;;;;;25.63;15.83;;;6.30;43.90;;;;;;5025942;28;21044;-44
2022/03/10 01:41:05;;;;;;;23.87;16.30;;;6.40;44.30;;;;;;5027138;28;20250;-47
2022/03/10 01:43:31;;;;;;;22.77;14.90;;;6.10;44.80;;;;;;5030468;28;20490;-44
2022/03/10 01:45:58;;;;;;;24.60;14.93;;;6.30;44.70;;;;;;5027374;28;20567;-44
2022/03/10 01:48:23;;;;;;;26.10;15.30;;;6.40;44.40;;;;;;5031130;28;20204;-43
2022/03/10 01:50:49;;;;;;;27.50;15.10;;;6.50;44.10;;;;;;5026931;28;20448;-46
2022/03/10 01:53:15;;;;;;;22.00;14.63;;;6.20;44.20;;;;;;5021490;28;20201;-46
2022/03/10 01:55:41;;;;;;;20.73;14.40;;;6.10;44.70;;;;;;5021624;28;20200;-44
2022/03/10 01:58:07;;;;;;;20.47;14.60;;;6.10;44.70;;;;;;5027182;28;20535;-45
2022/03/10 02:00:33;;;;;;;23.17;15.17;;;6.20;44.40;;;;;;5029232;28;20582;-44
2022/03/10 02:02:58;;;;;;;24.10;14.80;;;6.20;44.50;;;;;;5025826;28;20204;-47
2022/03/10 02:05:24;;;;;;;19.83;14.13;;;6.20;44.50;;;;;;5023406;28;20201;-47
2022/03/10 02:10:35;;;;;;;22.13;14.03;;;6.00;44.80;;;;;;5028457;28;20231;-46
2022/03/10 02:13:00;;;;;;;24.90;14.50;;;5.90;45.20;;;;;;5022824;28;20441;-47
2022/03/10 02:18:14;;;;;;;20.50;13.37;;;6.10;44.90;;;;;;5026976;28;20200;-48
2022/03/10 02:20:40;;;;;;;25.00;15.10;;;6.10;44.90;;;;;;5028262;28;20492;-44
2022/03/10 02:23:09;;;;;;;27.80;14.03;;;6.40;44.50;;;;;;5025249;28;20447;-45
2022/03/10 02:25:37;;;;;;;22.23;14.33;;;6.50;43.90;;;;;;5027374;28;20447;-44
2022/03/10 02:28:03;;;;;;;19.97;12.80;;;6.40;43.90;;;;;;5020023;28;20483;-44
2022/03/10 02:30:30;;;;;;;18.43;12.90;;;6.40;44.00;;;;;;5019173;28;20455;-45
2022/03/10 02:32:55;;;;;;;22.00;14.60;;;6.50;44.00;;;;;;5019012;28;20466;-44
2022/03/10 02:35:21;;;;;;;23.67;14.03;;;6.50;43.80;;;;;;5024830;28;20451;-45
2022/03/10 02:37:46;;;;;;;20.70;13.33;;;6.70;43.60;;;;;;5028735;28;20232;-43
2022/03/10 02:40:13;;;;;;;25.10;14.27;;;6.50;43.70;;;;;;5022041;28;20225;-43
2022/03/10 02:42:39;;;;;;;20.80;12.63;;;6.50;43.80;;;;;;5026511;28;20236;-44
2022/03/10 02:45:06;;;;;;;22.53;12.83;;;6.50;43.80;;;;;;5029509;28;20448;-44
2022/03/10 02:47:32;;;;;;;18.77;12.33;;;6.50;43.70;;;;;;5024241;28;21277;-44
2022/03/10 02:49:57;;;;;;;20.33;12.87;;;6.60;43.60;;;;;;5023626;28;20447;-43
2022/03/10 02:52:23;;;;;;;16.50;12.07;;;6.20;44.10;;;;;;5024027;28;20439;-44
2022/03/10 02:54:49;;;;;;;18.33;12.37;;;6.10;44.30;;;;;;5029514;28;20207;-43
2022/03/10 02:57:15;;;;;;;17.90;13.07;;;6.20;44.50;;;;;;5020064;28;20194;-45
2022/03/10 02:59:42;;;;;;;21.07;14.50;;;6.40;44.10;;;;;;5024235;28;20486;-43
2022/03/10 03:02:07;;;;;;;21.70;13.10;;;6.50;43.80;;;;;;5028334;28;20228;-44
2022/03/10 03:04:33;;;;;;;19.70;11.60;;;6.40;43.80;;;;;;5023205;28;20449;-44
2022/03/10 03:06:58;;;;;;;22.20;12.50;;;6.40;43.80;;;;;;5028918;28;20190;-44
2022/03/10 03:09:24;;;;;;;18.73;12.97;;;6.10;44.10;;;;;;5027426;28;20197;-43
2022/03/10 03:11:50;;;;;;;20.27;12.90;;;5.70;44.90;;;;;;5026762;28;20197;-46
2022/03/10 03:14:15;;;;;;;22.87;13.37;;;5.70;45.40;;;;;;5019391;28;20216;-44
2022/03/10 03:16:41;;;;;;;18.63;12.87;;;5.80;45.40;;;;;;5025911;28;20275;-44
2022/03/10 03:19:07;;;;;;;18.73;12.40;;;5.90;45.10;;;;;;5025917;28;20268;-44
2022/03/10 03:21:32;;;;;;;20.37;13.20;;;6.00;45.00;;;;;;5020997;28;20445;-44
2022/03/10 03:23:58;;;;;;;18.57;13.13;;;6.10;44.80;;;;;;5024915;28;20277;-44
2022/03/10 03:26:24;;;;;;;21.63;12.73;;;6.20;44.40;;;;;;5015966;28;20190;-43
2022/03/10 03:28:49;;;;;;;16.83;12.43;;;6.20;44.20;;;;;;5018527;28;20570;-43
2022/03/10 03:31:16;;;;;;;17.57;12.07;;;6.30;44.10;;;;;;5025506;28;20194;-44
2022/03/10 03:33:42;;;;;;;18.67;12.70;;;6.20;44.10;;;;;;5025523;28;20207;-43
2022/03/10 03:36:08;;;;;;;19.37;12.90;;;6.20;44.20;;;;;;5026301;28;20443;-44
2022/03/10 03:38:34;;;;;;;18.93;12.70;;;6.00;44.30;;;;;;5023163;28;20494;-44
2022/03/10 03:40:59;;;;;;;19.10;12.70;;;5.70;45.00;;;;;;5025919;28;20483;-45
2022/03/10 03:43:25;;;;;;;20.33;13.17;;;5.50;45.60;;;;;;5026423;28;20234;-44
2022/03/10 03:45:51;;;;;;;18.17;12.27;;;5.60;45.70;;;;;;5029537;28;20205;-45
2022/03/10 03:48:16;;;;;;;19.93;11.50;;;5.80;45.40;;;;;;5018671;28;20575;-45
2022/03/10 03:50:42;;;;;;;18.00;11.80;;;5.80;45.00;;;;;;5026358;28;20236;-45
2022/03/10 03:53:08;;;;;;;19.90;12.53;;;5.90;45.10;;;;;;5028289;28;20688;-44
2022/03/10 03:55:33;;;;;;;17.10;11.40;;;5.90;44.90;;;;;;5024623;28;20201;-44
2022/03/10 03:57:59;;;;;;;17.73;12.77;;;6.00;44.70;;;;;;5025592;28;20204;-44
2022/03/10 04:00:24;;;;;;;22.40;12.63;;;6.10;44.70;;;;;;5025189;28;20253;-44
2022/03/10 04:02:50;;;;;;;16.93;11.27;;;6.00;44.30;;;;;;5022171;28;20241;-45
2022/03/10 04:05:16;;;;;;;18.63;11.70;;;5.90;44.80;;;;;;5018859;28;20276;-45
2022/03/10 04:07:42;;;;;;;18.47;12.00;;;5.90;45.60;;;;;;5023677;28;20199;-44
2022/03/10 04:10:08;;;;;;;15.50;11.87;;;5.90;44.80;;;;;;5017001;28;20200;-45
2022/03/10 04:12:35;;;;;;;17.20;11.37;;;5.90;44.90;;;;;;5022782;28;20523;-44
2022/03/10 04:15:00;;;;;;;17.40;11.80;;;5.70;44.90;;;;;;5023350;28;20891;-44
2022/03/10 04:17:26;;;;;;;22.37;10.97;;;5.70;45.20;;;;;;5022979;28;20473;-46
2022/03/10 04:19:52;;;;;;;27.00;12.50;;;5.80;45.10;;;;;;5025795;28;20308;-45
2022/03/10 04:22:17;;;;;;;19.20;12.47;;;5.70;45.30;;;;;;5026569;28;20204;-44
2022/03/10 04:24:43;;;;;;;18.70;12.67;;;5.50;45.50;;;;;;5014537;28;20193;-47
2022/03/10 04:27:10;;;;;;;17.10;11.40;;;5.50;45.70;;;;;;5020401;28;20895;-45
2022/03/10 04:29:35;;;;;;;16.37;10.40;;;5.60;45.60;;;;;;5024777;28;20232;-46
2022/03/10 04:32:01;;;;;;;19.77;12.13;;;5.60;45.60;;;;;;5022306;28;20479;-46
2022/03/10 04:34:26;;;;;;;16.77;11.73;;;5.70;45.40;;;;;;5023885;28;20200;-45
2022/03/10 04:36:52;;;;;;;22.60;12.33;;;5.80;45.20;;;;;;5022268;28;20189;-45
2022/03/10 04:39:18;;;;;;;18.83;11.00;;;5.90;45.10;;;;;;5021926;28;20238;-45
2022/03/10 04:41:44;;;;;;;16.90;11.97;;;5.90;44.80;;;;;;5022923;28;20236;-45
2022/03/10 04:44:10;;;;;;;20.00;11.70;;;6.00;44.70;;;;;;5025674;28;20200;-45
2022/03/10 04:46:36;;;;;;;15.53;11.17;;;6.00;44.60;;;;;;5022947;28;20272;-44
2022/03/10 04:49:02;;;;;;;18.23;10.87;;;5.90;44.70;;;;;;5020482;28;20478;-45
2022/03/10 04:51:28;;;;;;;18.60;11.20;;;5.90;44.80;;;;;;5022286;28;20452;-44
2022/03/10 04:53:54;;;;;;;15.63;10.20;;;5.80;44.90;;;;;;5022936;28;21247;-46
2022/03/10 04:56:20;;;;;;;18.23;11.07;;;5.80;45.20;;;;;;5024699;28;20319;-46
2022/03/10 04:58:45;;;;;;;17.10;10.80;;;5.80;45.00;;;;;;5023724;28;20447;-46
2022/03/10 05:01:12;;;;;;;18.00;12.17;;;5.80;45.10;;;;;;5024288;28;20240;-44
2022/03/10 05:03:38;;;;;;;16.23;10.20;;;5.70;45.30;;;;;;5026103;28;20198;-44
2022/03/10 05:06:03;;;;;;;18.53;10.97;;;5.40;45.60;;;;;;5018266;28;20432;-45
2022/03/10 05:08:29;;;;;;;18.93;11.83;;;5.30;46.00;;;;;;5029284;28;20255;-45
2022/03/10 05:10:55;;;;;;;17.60;12.07;;;5.40;46.00;;;;;;5034953;28;20275;-46
2022/03/10 05:13:21;;;;;;;19.13;11.43;;;5.30;46.20;;;;;;5026872;28;20201;-44
2022/03/10 05:15:47;;;;;;;15.60;10.10;;;5.40;46.30;;;;;;5022578;28;20236;-45
2022/03/10 05:18:13;;;;;;;17.27;11.80;;;5.50;46.20;;;;;;5024287;28;20535;-44
2022/03/10 05:20:38;;;;;;;23.80;12.43;;;5.40;46.00;;;;;;5019239;28;20324;-46
2022/03/10 05:23:06;;;;;;;18.07;11.43;;;5.40;46.20;;;;;;5016396;28;20200;-45
2022/03/10 05:25:40;;;;;;;16.20;11.10;;;5.30;46.10;;;;;;5017663;28;20205;-47
2022/03/10 05:28:11;;;;;;;15.30;10.60;;;5.20;46.20;;;;;;5015689;28;20885;-45
2022/03/10 05:30:36;;;;;;;18.10;11.40;;;5.30;46.40;;;;;;5019684;28;20804;-45
2022/03/10 05:33:02;;;;;;;18.80;12.33;;;5.50;46.10;;;;;;5016206;28;20449;-44
2022/03/10 05:35:29;;;;;;;18.20;12.00;;;5.50;45.70;;;;;;5019347;28;20185;-45
2022/03/10 05:37:55;;;;;;;20.03;12.73;;;5.50;45.80;;;;;;5028212;28;20784;-45
2022/03/10 05:40:22;;;;;;;18.17;11.60;;;5.50;45.80;;;;;;5017936;28;20490;-45
2022/03/10 05:42:51;;;;;;;15.67;11.00;;;5.50;45.80;;;;;;5023594;28;20900;-47
2022/03/10 05:45:20;;;;;;;16.07;10.80;;;5.30;46.00;;;;;;5022729;28;20539;-44
2022/03/10 05:47:46;;;;;;;16.20;10.57;;;5.20;46.20;;;;;;5023340;28;20458;-45
2022/03/10 05:50:12;;;;;;;14.37;10.47;;;5.10;46.50;;;;;;5019337;28;20457;-46
2022/03/10 05:52:38;;;;;;;17.23;10.07;;;5.10;46.50;;;;;;5020260;28;20915;-47
2022/03/10 05:55:05;;;;;;;16.20;10.57;;;5.10;46.60;;;;;;5015251;28;20205;-45
2022/03/10 05:57:30;;;;;;;14.30;9.90;;;5.20;46.60;;;;;;5021025;28;20189;-44
2022/03/10 05:59:56;;;;;;;12.37;8.73;;;5.10;46.60;;;;;;5015383;28;20513;-46
2022/03/10 06:02:21;;;;;;;17.53;10.13;;;5.00;46.90;;;;;;5025019;28;20201;-45
2022/03/10 06:04:47;;;;;;;13.90;10.23;;;4.90;47.20;;;;;;5020242;28;20197;-45
2022/03/10 06:07:13;;;;;;;18.60;10.57;;;5.10;47.10;;;;;;5028826;28;20771;-45
2022/03/10 06:09:38;;;;;;;18.93;11.07;;;5.20;46.80;;;;;;5019626;28;20227;-48
2022/03/10 06:12:04;;;;;;;15.87;10.23;;;5.30;46.70;;;;;;5026063;28;20197;-44
2022/03/10 06:14:30;;;;;;;15.20;10.40;;;5.40;46.60;;;;;;5012378;28;20240;-45
2022/03/10 06:16:56;;;;;;;15.27;10.50;;;5.30;46.50;;;;;;5020313;28;20468;-44
2022/03/10 06:19:22;;;;;;;19.33;10.17;;;5.50;48.50;;;;;;5028014;28;20754;-44
2022/03/10 06:21:48;;;;;;;16.23;10.50;;;5.90;49.30;;;;;;5019760;28;20560;-45
2022/03/10 06:24:14;;;;;;;15.30;11.40;;;6.20;48.70;;;;;;5028451;28;20464;-44
2022/03/10 06:26:40;;;;;;;21.60;11.80;;;6.60;48.30;;;;;;5026430;28;20471;-44
2022/03/10 06:29:06;;;;;;;17.53;10.57;;;6.70;47.10;;;;;;5021348;28;20434;-44
2022/03/10 06:31:31;;;;;;;16.50;11.97;;;7.00;45.80;;;;;;5019318;28;20198;-46
2022/03/10 06:33:58;;;;;;;18.73;12.20;;;7.20;45.40;;;;;;5020176;28;20289;-44
2022/03/10 06:36:24;;;;;;;18.90;12.30;;;7.50;44.80;;;;;;5022503;28;21129;-44
2022/03/10 06:38:50;;;;;;;18.70;12.17;;;7.70;44.00;;;;;;5026749;28;20849;-44
2022/03/10 06:41:16;;;;;;;19.23;11.80;;;8.00;43.20;;;;;;5021796;28;20488;-44
2022/03/10 06:43:41;;;;;;;25.00;14.50;;;8.10;42.50;;;;;;5025664;28;20268;-45
2022/03/10 06:46:07;;;;;;;20.17;13.80;;;8.30;41.60;;;;;;5030455;28;20197;-44
2022/03/10 06:48:33;;;;;;;19.07;14.00;;;8.10;41.90;;;;;;5030750;28;20240;-44
2022/03/10 06:50:58;;;;;;;19.37;13.13;;;8.40;42.10;;;;;;5032578;28;20259;-44
2022/03/10 06:53:24;;;;;;;16.87;12.60;;;8.70;41.70;;;;;;5022829;28;20204;-44
2022/03/10 06:55:49;;;;;;;16.93;12.03;;;8.90;40.80;;;;;;5023068;28;20672;-44
2022/03/10 06:58:15;;;;;;;17.30;12.07;;;9.00;40.00;;;;;;5019818;28;20201;-44
2022/03/10 07:00:41;;;;;;;17.83;12.70;;;9.30;40.20;;;;;;5019015;28;20232;-44
2022/03/10 07:03:06;;;;;;;15.63;12.00;;;9.50;39.80;;;;;;5021224;28;20232;-44
2022/03/10 07:05:32;;;;;;;19.03;12.67;;;9.70;39.30;;;;;;5023996;28;20193;-44
2022/03/10 07:07:58;;;;;;;20.27;12.33;;;9.90;38.90;;;;;;5019971;28;20197;-45
2022/03/10 07:10:24;;;;;;;15.60;11.77;;;9.60;38.60;;;;;;5021305;28;20193;-44
2022/03/10 07:12:49;;;;;;;22.30;13.43;;;9.80;39.20;;;;;;5025001;28;20267;-44
2022/03/10 07:15:15;;;;;;;20.03;12.83;;;10.10;37.80;;;;;;5024092;28;20660;-44
2022/03/10 07:17:41;;;;;;;20.40;13.27;;;10.40;37.40;;;;;;5021140;28;20201;-45
2022/03/10 07:20:08;;;;;;;16.90;12.90;;;10.70;36.70;;;;;;5017773;28;20245;-45
2022/03/10 07:22:34;;;;;;;18.83;12.33;;;10.80;35.90;;;;;;5022385;28;20931;-44
2022/03/10 07:25:00;;;;;;;19.70;13.10;;;10.90;35.90;;;;;;5020161;28;20432;-45
2022/03/10 07:27:25;;;;;;;17.93;12.10;;;11.10;35.70;;;;;;5026922;28;20442;-44
2022/03/10 07:29:51;;;;;;;19.00;12.87;;;11.20;35.60;;;;;;5025895;28;20851;-49
2022/03/10 07:32:18;;;;;;;16.43;11.50;;;11.40;35.10;;;;;;5028864;28;20197;-46
2022/03/10 07:34:47;;;;;;;17.40;13.10;;;11.70;34.90;;;;;;5024690;28;20242;-45
2022/03/10 07:37:13;;;;;;;18.90;15.13;;;11.90;34.50;;;;;;5030639;28;21011;-48
2022/03/10 07:39:39;;;;;;;25.10;15.90;;;12.00;34.30;;;;;;5027138;28;20563;-45
2022/03/10 07:42:05;;;;;;;35.87;26.20;;;12.30;34.40;;;;;;5025238;28;20552;-44
2022/03/10 07:44:31;;;;;;;22.80;17.43;;;12.40;33.90;;;;;;5016661;28;20198;-45
2022/03/10 07:46:56;;;;;;;23.20;13.57;;;12.60;33.40;;;;;;5023340;28;20995;-45
2022/03/10 07:49:22;;;;;;;17.73;13.70;;;12.70;33.30;;;;;;5017637;28;20196;-44
2022/03/10 07:51:48;;;;;;;19.83;13.10;;;12.80;33.50;;;;;;5017545;28;20589;-44
2022/03/10 07:54:13;;;;;;;15.50;12.80;;;12.90;33.20;;;;;;5022328;28;20224;-45
2022/03/10 07:56:39;;;;;;;21.60;12.07;;;13.10;33.10;;;;;;5027691;28;20220;-44
2022/03/10 07:59:05;;;;;;;18.00;13.05;;;13.10;32.80;;;;;;5015449;28;20445;-44
2022/03/10 08:01:31;;;;;;;20.65;15.80;;;13.20;33.40;;;;;;5018771;28;20473;-45
2022/03/10 08:03:57;;;;;;;18.43;13.63;;;13.30;32.80;;;;;;5015771;28;21065;-43
2022/03/10 08:06:24;;;;;;;20.80;13.57;;;13.30;32.60;;;;;;5021660;28;20560;-44
2022/03/10 08:08:50;;;;;;;18.53;13.10;;;13.40;32.60;;;;;;5031878;28;20573;-44
2022/03/10 08:11:15;;;;;;;18.07;12.57;;;13.40;32.60;;;;;;5024761;28;20428;-46
2022/03/10 08:13:41;;;;;;;16.27;13.17;;;13.40;32.80;;;;;;5021698;28;20661;-44
2022/03/10 08:16:06;;;;;;;21.77;13.13;;;13.40;33.00;;;;;;5033582;28;20216;-45
2022/03/10 08:18:32;;;;;;;17.00;13.20;;;13.30;32.90;;;;;;5017078;28;20208;-44
2022/03/10 08:20:58;;;;;;;17.13;13.13;;;13.20;33.00;;;;;;5029261;28;20244;-44
2022/03/10 08:23:24;;;;;;;15.23;11.17;;;13.20;33.10;;;;;;5034748;28;20208;-44
2022/03/10 08:25:50;;;;;;;15.40;12.20;;;13.30;33.10;;;;;;5018475;28;20824;-45
2022/03/10 08:28:16;;;;;;;14.27;11.53;;;13.20;32.80;;;;;;5018270;28;20531;-45
2022/03/10 08:30:42;;;;;;;15.37;12.03;;;13.00;33.20;;;;;;5017980;28;20594;-44
2022/03/10 08:33:08;;;;;;;13.10;11.00;;;13.00;33.40;;;;;;5028675;28;20958;-45
2022/03/10 08:35:33;;;;;;;13.93;12.10;;;13.10;33.60;;;;;;5011742;28;20445;-45
2022/03/10 08:37:59;;;;;;;15.93;12.00;;;13.20;34.20;;;;;;5020533;28;20194;-45
2022/03/10 08:40:25;;;;;;;16.53;12.93;;;13.20;33.90;;;;;;5028201;28;20228;-44
2022/03/10 08:42:51;;;;;;;15.97;12.63;;;13.00;33.40;;;;;;5027671;28;20989;-46
2022/03/10 08:45:18;;;;;;;17.70;12.67;;;12.90;34.10;;;;;;5016523;28;20204;-45
2022/03/10 08:47:44;;;;;;;19.37;12.90;;;13.00;34.50;;;;;;5013299;28;20199;-47
2022/03/10 08:50:11;;;;;;;16.60;12.90;;;12.90;34.00;;;;;;5024662;28;20432;-45
2022/03/10 08:52:37;;;;;;;15.93;11.17;;;13.00;34.30;;;;;;5020105;28;20190;-47
2022/03/10 08:55:03;;;;;;;16.10;12.37;;;13.10;34.50;;;;;;5019864;28;20946;-45
2022/03/10 08:57:29;;;;;;;13.40;10.57;;;13.20;34.30;;;;;;5006095;28;20800;-46
2022/03/10 08:59:54;;;;;;;14.07;10.87;;;13.30;34.70;;;;;;5017110;28;20488;-47
2022/03/10 09:02:20;;;;;;;11.73;9.97;;;13.40;34.30;;;;;;5018801;28;20609;-48
2022/03/10 09:04:45;;;;;;;16.83;11.20;;;13.60;34.10;;;;;;5022306;28;20189;-45
2022/03/10 09:07:11;;;;;;;14.27;11.00;;;13.70;34.50;;;;;;5022961;28;20284;-46
2022/03/10 09:09:37;;;;;;;13.00;10.30;;;13.90;34.10;;;;;;5019915;28;20212;-46
2022/03/10 09:12:02;;;;;;;15.43;10.97;;;14.10;33.70;;;;;;5018164;28;20196;-48
2022/03/10 09:14:28;;;;;;;14.53;11.10;;;14.40;33.20;;;;;;5026992;28;20222;-49
2022/03/10 09:16:54;;;;;;;10.63;9.53;;;14.60;33.10;;;;;;5026276;28;20868;-48
2022/03/10 09:19:20;;;;;;;16.10;9.83;;;14.80;32.40;;;;;;5023584;28;20235;-48
2022/03/10 09:21:46;;;;;;;18.30;10.07;;;14.60;32.10;;;;;;5020511;28;20439;-47
2022/03/10 09:24:11;;;;;;;9.70;8.70;;;14.70;32.00;;;;;;5025003;28;20200;-49
2022/03/10 09:26:40;;;;;;;13.17;7.87;;;14.90;32.00;;;;;;5020371;28;20872;-48
2022/03/10 09:29:07;;;;;;;8.10;7.30;;;15.00;31.60;;;;;;5019772;28;20189;-48
2022/03/10 09:31:33;;;;;;;9.90;8.20;;;15.10;30.90;;;;;;5020365;28;21464;-47
2022/03/10 09:33:58;;;;;;;9.27;7.07;;;15.30;30.40;;;;;;5023755;28;20519;-46
2022/03/10 09:36:26;;;;;;;9.30;7.57;;;15.30;30.20;;;;;;5025699;28;20211;-48
2022/03/10 09:38:54;;;;;;;10.00;7.60;;;15.50;30.60;;;;;;5027236;28;20669;-47
2022/03/10 09:41:20;;;;;;;9.40;8.27;;;15.70;29.60;;;;;;5024398;28;20940;-50
2022/03/10 09:43:47;;;;;;;10.10;8.17;;;15.80;29.20;;;;;;5022555;28;20669;-49
2022/03/10 09:46:13;;;;;;;10.17;6.87;;;16.10;29.20;;;;;;5016259;28;20617;-48
2022/03/10 09:48:39;;;;;;;7.97;7.17;;;16.30;28.90;;;;;;5028019;28;20429;-48
2022/03/10 09:51:06;;;;;;;8.47;6.80;;;16.30;28.60;;;;;;5014131;28;20220;-50
2022/03/10 09:53:34;;;;;;;7.10;5.83;;;16.50;28.40;;;;;;5022944;28;20471;-49
2022/03/10 09:56:00;;;;;;;9.23;6.20;;;16.60;28.20;;;;;;5024505;28;20554;-48
2022/03/10 09:58:26;;;;;;;8.30;6.47;;;16.70;27.80;;;;;;5023482;28;20877;-51
2022/03/10 10:00:58;;;;;;;6.60;5.87;;;16.60;27.90;;;;;;5027202;28;20541;-51
2022/03/10 10:03:24;;;;;;;7.13;5.83;;;16.50;27.40;;;;;;5025613;28;20828;-50
2022/03/10 10:05:49;;;;;;;6.30;5.40;;;16.50;27.90;;;;;;5027259;28;20515;-51
2022/03/10 10:08:17;;;;;;;5.70;5.20;;;16.80;27.60;;;;;;5022429;28;20276;-48
2022/03/10 10:10:48;;;;;;;6.63;5.60;;;16.80;27.50;;;;;;5023638;28;20270;-46
2022/03/10 10:13:25;;;;;;;5.60;4.73;;;17.20;27.30;;;;;;5022161;28;20452;-51
2022/03/10 10:15:59;;;;;;;7.20;5.80;;;17.10;26.50;;;;;;5025639;28;20428;-49
2022/03/10 10:18:26;;;;;;;7.03;5.70;;;16.80;26.90;;;;;;5030266;28;20439;-49
2022/03/10 10:20:53;;;;;;;5.90;4.80;;;17.00;27.30;;;;;;5023757;28;21059;-48
2022/03/10 10:23:21;;;;;;;5.73;4.93;;;17.40;26.90;;;;;;5022449;28;20428;-51
2022/03/10 10:25:51;;;;;;;4.80;4.30;;;17.60;26.20;;;;;;5030892;28;20435;-49
2022/03/10 10:28:28;;;;;;;5.20;4.57;;;17.90;26.30;;;;;;5026465;28;20440;-47
2022/03/10 10:31:18;;;;;;;6.40;4.17;;;18.00;25.60;;;;;;5022943;28;21121;-47
2022/03/10 10:34:02;;;;;;;4.70;4.20;;;18.20;25.20;;;;;;5021636;28;20962;-49
2022/03/10 10:36:30;;;;;;;4.10;3.73;;;18.10;25.40;;;;;;5029989;28;20439;-50
2022/03/10 10:39:17;;;;;;;4.73;3.97;;;18.30;25.20;;;;;;5017087;28;20448;-47
2022/03/10 10:41:45;;;;;;;4.23;3.73;;;18.00;24.80;;;;;;5019421;28;20447;-47
2022/03/10 10:44:17;;;;;;;6.80;3.70;;;18.00;24.80;;;;;;5019928;28;20433;-50
2022/03/10 10:46:44;;;;;;;5.30;3.50;;;17.90;25.30;;;;;;5018363;28;20428;-49
2022/03/10 10:49:18;;;;;;;4.00;3.60;;;18.00;25.30;;;;;;5025865;28;20460;-47
2022/03/10 10:51:54;;;;;;;4.33;3.90;;;18.00;24.60;;;;;;5016803;28;20891;-47
2022/03/10 10:54:20;;;;;;;5.47;4.80;;;18.20;25.00;;;;;;5026347;28;20458;-47
2022/03/10 10:56:49;;;;;;;6.87;5.03;;;18.80;24.90;;;;;;5023118;28;20452;-49
2022/03/10 10:59:34;;;;;;;6.10;4.40;;;18.80;24.80;;;;;;5020938;28;20278;-47
2022/03/10 11:02:11;;;;;;;5.07;4.50;;;18.90;24.80;;;;;;5015217;28;20449;-46
2022/03/10 11:04:44;;;;;;;5.20;4.30;;;19.10;24.60;;;;;;5016756;28;20513;-48
2022/03/10 11:07:11;;;;;;;5.73;4.27;;;19.50;25.00;;;;;;5024607;28;20439;-48
2022/03/10 11:09:39;;;;;;;4.70;4.20;;;19.70;24.20;;;;;;5024511;28;20443;-52
2022/03/10 11:12:05;;;;;;;4.30;3.90;;;19.70;23.80;;;;;;5022226;28;20436;-51
2022/03/10 11:14:31;;;;;;;5.27;4.00;;;19.90;23.80;;;;;;5024085;28;20428;-47
2022/03/10 11:16:58;;;;;;;4.80;4.30;;;20.00;23.60;;;;;;5018166;28;20441;-48
2022/03/10 11:19:26;;;;;;;3.20;2.90;;;20.10;23.00;;;;;;5023952;28;20480;-50
2022/03/10 11:22:11;;;;;;;3.50;3.20;;;20.00;22.40;;;;;;5014504;28;20451;-51
2022/03/10 11:25:02;;;;;;;4.20;3.80;;;19.60;22.80;;;;;;5015170;28;20483;-49
2022/03/10 11:27:33;;;;;;;4.20;3.80;;;19.80;23.40;;;;;;5022584;28;20451;-48
2022/03/10 11:30:01;;;;;;;5.03;3.13;;;19.60;22.60;;;;;;5026395;28;20436;-48
2022/03/10 11:32:29;;;;;;;3.70;3.30;;;19.10;23.00;;;;;;5022518;28;20524;-49
2022/03/10 11:35:00;;;;;;;3.73;3.40;;;19.20;23.10;;;;;;5016322;28;20444;-48
2022/03/10 11:37:41;;;;;;;4.83;3.93;;;19.60;23.30;;;;;;5019755;28;20436;-50
2022/03/10 11:40:15;;;;;;;5.03;4.23;;;19.90;23.00;;;;;;5019943;28;20491;-49
2022/03/10 11:42:41;;;;;;;3.60;3.30;;;20.30;22.50;;;;;;5024697;28;20429;-52
2022/03/10 11:45:20;;;;;;;4.47;3.53;;;20.20;22.50;;;;;;5011603;28;20481;-49
2022/03/10 11:47:48;;;;;;;4.27;3.77;;;20.50;22.10;;;;;;5026019;28;20447;-48
2022/03/10 11:50:22;;;;;;;4.33;3.93;;;20.60;22.50;;;;;;5026288;28;20439;-51
2022/03/10 11:52:55;;;;;;;4.70;4.13;;;21.00;22.60;;;;;;5026015;28;20444;-49
2022/03/10 11:55:22;;;;;;;4.20;3.80;;;20.90;21.70;;;;;;5028805;28;20494;-52
2022/03/10 11:57:54;;;;;;;5.30;3.97;;;21.00;22.30;;;;;;5023084;28;20997;-49
2022/03/10 12:00:51;;;;;;;6.07;4.07;;;21.00;22.20;;;;;;5025059;28;20563;-48
2022/03/10 12:03:37;;;;;;;4.23;3.83;;;21.20;22.10;;;;;;5027200;28;20444;-51
2022/03/10 12:06:15;;;;;;;4.90;4.30;;;21.20;21.90;;;;;;5027621;28;20539;-48
2022/03/10 12:08:40;;;;;;;4.87;4.37;;;21.10;21.60;;;;;;5024465;28;20436;-49
2022/03/10 12:11:13;;;;;;;6.27;3.50;;;21.20;21.50;;;;;;5019209;28;20447;-52
2022/03/10 12:13:44;;;;;;;7.40;4.10;;;21.50;21.20;;;;;;5021461;28;20209;-51
2022/03/10 12:16:30;;;;;;;4.43;4.03;;;21.70;20.90;;;;;;5025659;28;20993;-46
2022/03/10 12:18:56;;;;;;;6.07;4.37;;;21.50;21.00;;;;;;5020185;28;20446;-48
2022/03/10 12:21:27;;;;;;;5.10;3.97;;;21.50;21.30;;;;;;5023587;28;20487;-47
2022/03/10 12:23:56;;;;;;;5.00;4.27;;;21.30;21.10;;;;;;5024854;28;20483;-48
2022/03/10 12:26:29;;;;;;;5.37;4.87;;;21.30;21.50;;;;;;5028230;28;20435;-48
2022/03/10 12:29:03;;;;;;;5.83;5.23;;;21.30;21.30;;;;;;5028552;28;20449;-48
2022/03/10 12:31:32;;;;;;;4.63;4.17;;;21.40;21.50;;;;;;5015845;28;20484;-47
2022/03/10 12:34:03;;;;;;;5.20;4.43;;;21.40;21.10;;;;;;5025507;28;20464;-48
2022/03/10 12:36:51;;;;;;;4.93;4.43;;;21.90;21.30;;;;;;5029239;28;20437;-52
2022/03/10 12:39:19;;;;;;;5.20;3.80;;;22.30;20.60;;;;;;5028539;28;20436;-47
2022/03/10 12:41:48;;;;;;;4.30;3.67;;;21.90;20.40;;;;;;5027087;28;20444;-48
2022/03/10 12:44:18;;;;;;;4.87;4.37;;;22.20;20.40;;;;;;5022691;28;20482;-47